sensor_id;sensor_type;location;lat;lon;timestamp;pressure;altitude;pressure_sealevel;temperature;humidity
75604;BME280;64187;51.010;13.792;2023-03-25T00:02:00;99227.25;;;11.13;65.10
75604;BME280;64187;51.010;13.792;2023-03-25T00:06:58;99233.50;;;11.08;65.07
75604;BME280;64187;51.010;13.792;2023-03-25T00:11:57;99224.28;;;10.99;65.07
75604;BME280;64187;51.010;13.792;2023-03-25T00:16:56;99222.13;;;10.91;65.67
75604;BME280;64187;51.010;13.792;2023-03-25T00:21:56;99216.44;;;10.87;65.51
75604;BME280;64187;51.010;13.792;2023-03-25T00:26:55;99203.47;;;10.69;66.46
75604;BME280;64187;51.010;13.792;2023-03-25T00:31:54;99198.31;;;10.72;66.01
75604;BME280;64187;51.010;13.792;2023-03-25T00:36:52;99186.94;;;10.75;65.49
75604;BME280;64187;51.010;13.792;2023-03-25T00:41:52;99188.81;;;10.80;65.18
75604;BME280;64187;51.010;13.792;2023-03-25T00:46:51;99198.03;;;10.79;65.38
75604;BME280;64187;51.010;13.792;2023-03-25T00:51:51;99194.25;;;10.80;65.24
75604;BME280;64187;51.010;13.792;2023-03-25T00:56:52;99201.56;;;10.85;65.26
75604;BME280;64187;51.010;13.792;2023-03-25T01:01:51;99197.75;;;10.96;64.98
75604;BME280;64187;51.010;13.792;2023-03-25T01:06:51;99196.16;;;10.74;65.29
75604;BME280;64187;51.010;13.792;2023-03-25T01:11:51;99192.63;;;10.79;65.02
75604;BME280;64187;51.010;13.792;2023-03-25T01:16:50;99187.47;;;10.67;65.48
75604;BME280;64187;51.010;13.792;2023-03-25T01:21:49;99190.72;;;10.64;65.47
75604;BME280;64187;51.010;13.792;2023-03-25T01:26:48;99177.75;;;10.71;65.32
75604;BME280;64187;51.010;13.792;2023-03-25T01:31:47;99176.41;;;10.53;66.41
75604;BME280;64187;51.010;13.792;2023-03-25T01:36:46;99164.47;;;10.54;66.28
75604;BME280;64187;51.010;13.792;2023-03-25T01:41:48;99158.25;;;10.69;65.46
75604;BME280;64187;51.010;13.792;2023-03-25T01:46:50;99152.84;;;10.44;66.62
75604;BME280;64187;51.010;13.792;2023-03-25T01:52:02;99143.38;;;10.46;67.03
75604;BME280;64187;51.010;13.792;2023-03-25T01:57:04;99134.97;;;10.78;65.32
75604;BME280;64187;51.010;13.792;2023-03-25T02:02:06;99120.09;;;10.81;66.27
75604;BME280;64187;51.010;13.792;2023-03-25T02:07:06;99122.50;;;10.77;66.27
75604;BME280;64187;51.010;13.792;2023-03-25T02:12:06;99120.59;;;10.98;65.48
75604;BME280;64187;51.010;13.792;2023-03-25T02:28:38;99119.25;;;10.96;64.12
75604;BME280;64187;51.010;13.792;2023-03-25T02:38:59;99120.56;;;11.09;63.28
75604;BME280;64187;51.010;13.792;2023-03-25T02:44:07;99111.84;;;11.22;63.07
75604;BME280;64187;51.010;13.792;2023-03-25T02:49:12;99107.75;;;11.30;63.54
75604;BME280;64187;51.010;13.792;2023-03-25T02:54:12;99098.31;;;11.22;63.24
75604;BME280;64187;51.010;13.792;2023-03-25T02:59:14;99106.44;;;11.22;63.64
75604;BME280;64187;51.010;13.792;2023-03-25T03:04:15;99102.19;;;11.01;64.32
75604;BME280;64187;51.010;13.792;2023-03-25T03:09:37;99107.31;;;11.02;64.11
75604;BME280;64187;51.010;13.792;2023-03-25T03:15:04;99106.22;;;10.93;63.96
75604;BME280;64187;51.010;13.792;2023-03-25T03:20:37;99105.44;;;10.92;64.02
75604;BME280;64187;51.010;13.792;2023-03-25T03:25:46;99104.66;;;10.82;64.28
75604;BME280;64187;51.010;13.792;2023-03-25T03:30:59;99105.47;;;10.77;64.65
75604;BME280;64187;51.010;13.792;2023-03-25T03:36:09;99113.84;;;10.75;65.40
75604;BME280;64187;51.010;13.792;2023-03-25T03:41:14;99109.25;;;10.81;64.52
75604;BME280;64187;51.010;13.792;2023-03-25T03:46:29;99110.06;;;10.82;64.90
75604;BME280;64187;51.010;13.792;2023-03-25T03:51:37;99115.75;;;10.75;64.75
75604;BME280;64187;51.010;13.792;2023-03-25T03:56:53;99119.00;;;10.67;65.46
75604;BME280;64187;51.010;13.792;2023-03-25T04:01:58;99121.69;;;10.82;66.17
75604;BME280;64187;51.010;13.792;2023-03-25T04:07:05;99133.34;;;10.67;65.64
75604;BME280;64187;51.010;13.792;2023-03-25T04:17:10;99136.34;;;10.76;64.21
75604;BME280;64187;51.010;13.792;2023-03-25T04:22:09;99131.19;;;10.64;64.06
75604;BME280;64187;51.010;13.792;2023-03-25T04:27:11;99134.16;;;10.52;64.44
75604;BME280;64187;51.010;13.792;2023-03-25T04:32:11;99125.22;;;10.77;64.51
75604;BME280;64187;51.010;13.792;2023-03-25T04:37:10;99139.06;;;10.71;63.74
75604;BME280;64187;51.010;13.792;2023-03-25T04:42:09;99143.91;;;10.74;64.60
75604;BME280;64187;51.010;13.792;2023-03-25T04:47:12;99138.22;;;10.91;64.29
75604;BME280;64187;51.010;13.792;2023-03-25T04:52:14;99138.47;;;10.89;64.29
75604;BME280;64187;51.010;13.792;2023-03-25T04:57:14;99141.66;;;11.12;62.84
75604;BME280;64187;51.010;13.792;2023-03-25T05:02:13;99136.53;;;11.05;62.82
75604;BME280;64187;51.010;13.792;2023-03-25T05:07:12;99126.78;;;11.04;62.38
75604;BME280;64187;51.010;13.792;2023-03-25T05:12:11;99129.75;;;11.08;61.46
75604;BME280;64187;51.010;13.792;2023-03-25T05:17:10;99137.84;;;11.23;61.38
75604;BME280;64187;51.010;13.792;2023-03-25T05:22:09;99140.84;;;11.16;61.69
75604;BME280;64187;51.010;13.792;2023-03-25T05:27:08;99150.88;;;11.21;61.07
75604;BME280;64187;51.010;13.792;2023-03-25T05:32:07;99155.69;;;11.34;61.01
75604;BME280;64187;51.010;13.792;2023-03-25T05:37:06;99153.56;;;11.21;60.19
75604;BME280;64187;51.010;13.792;2023-03-25T05:42:05;99158.69;;;11.23;60.43
75604;BME280;64187;51.010;13.792;2023-03-25T05:47:04;99166.81;;;11.23;59.53
75604;BME280;64187;51.010;13.792;2023-03-25T05:52:04;99161.72;;;11.11;57.36
75604;BME280;64187;51.010;13.792;2023-03-25T05:57:04;99157.16;;;10.91;58.67
75604;BME280;64187;51.010;13.792;2023-03-25T06:02:05;99163.09;;;10.83;58.52
75604;BME280;64187;51.010;13.792;2023-03-25T06:07:06;99166.38;;;10.74;57.76
75604;BME280;64187;51.010;13.792;2023-03-25T06:12:19;99182.88;;;10.88;57.20
75604;BME280;64187;51.010;13.792;2023-03-25T06:17:20;99182.88;;;10.73;59.12
75604;BME280;64187;51.010;13.792;2023-03-25T06:22:22;99198.31;;;10.52;59.32
75604;BME280;64187;51.010;13.792;2023-03-25T06:27:21;99201.25;;;10.45;60.22
75604;BME280;64187;51.010;13.792;2023-03-25T06:32:21;99213.97;;;10.34;61.59
75604;BME280;64187;51.010;13.792;2023-03-25T06:37:20;99216.31;;;10.16;62.42
75604;BME280;64187;51.010;13.792;2023-03-25T06:42:19;99203.97;;;10.50;61.81
75604;BME280;64187;51.010;13.792;2023-03-25T06:47:35;99212.63;;;10.47;61.70
75604;BME280;64187;51.010;13.792;2023-03-25T06:52:36;99193.69;;;10.73;60.46
75604;BME280;64187;51.010;13.792;2023-03-25T06:57:35;99192.63;;;10.84;60.09
75604;BME280;64187;51.010;13.792;2023-03-25T07:02:35;99198.84;;;10.90;58.82
75604;BME280;64187;51.010;13.792;2023-03-25T07:07:35;99197.38;;;11.54;57.68
75604;BME280;64187;51.010;13.792;2023-03-25T07:12:34;99205.94;;;11.76;56.45
75604;BME280;64187;51.010;13.792;2023-03-25T07:17:33;99218.41;;;11.88;55.95
75604;BME280;64187;51.010;13.792;2023-03-25T07:22:33;99212.13;;;12.02;55.04
75604;BME280;64187;51.010;13.792;2023-03-25T07:27:32;99210.84;;;12.29;53.96
75604;BME280;64187;51.010;13.792;2023-03-25T07:32:56;99205.69;;;12.33;52.15
75604;BME280;64187;51.010;13.792;2023-03-25T07:37:59;99210.25;;;11.93;53.09
75604;BME280;64187;51.010;13.792;2023-03-25T07:42:58;99214.88;;;11.82;53.85
75604;BME280;64187;51.010;13.792;2023-03-25T07:48:13;99222.75;;;11.78;52.49
75604;BME280;64187;51.010;13.792;2023-03-25T07:53:13;99229.00;;;11.74;53.74
75604;BME280;64187;51.010;13.792;2023-03-25T07:58:13;99226.38;;;11.53;55.57
75604;BME280;64187;51.010;13.792;2023-03-25T08:03:12;99243.47;;;11.43;55.17
75604;BME280;64187;51.010;13.792;2023-03-25T08:08:12;99255.41;;;11.12;57.80
75604;BME280;64187;51.010;13.792;2023-03-25T08:13:11;99246.50;;;10.96;61.15
75604;BME280;64187;51.010;13.792;2023-03-25T08:18:10;99244.53;;;11.42;59.18
75604;BME280;64187;51.010;13.792;2023-03-25T08:23:09;99236.38;;;11.58;58.73
75604;BME280;64187;51.010;13.792;2023-03-25T08:28:10;99245.13;;;11.19;59.60
75604;BME280;64187;51.010;13.792;2023-03-25T08:33:09;99246.16;;;11.43;60.27
75604;BME280;64187;51.010;13.792;2023-03-25T08:38:08;99255.41;;;11.12;60.66
75604;BME280;64187;51.010;13.792;2023-03-25T08:43:07;99269.22;;;11.15;63.89
75604;BME280;64187;51.010;13.792;2023-03-25T08:48:06;99273.28;;;10.87;67.67
75604;BME280;64187;51.010;13.792;2023-03-25T08:53:05;99285.72;;;10.73;68.36
75604;BME280;64187;51.010;13.792;2023-03-25T08:58:04;99289.78;;;10.75;67.12
75604;BME280;64187;51.010;13.792;2023-03-25T09:03:05;99312.16;;;10.30;66.87
75604;BME280;64187;51.010;13.792;2023-03-25T09:08:05;99308.09;;;9.75;70.59
75604;BME280;64187;51.010;13.792;2023-03-25T09:13:04;99302.59;;;10.12;69.59
75604;BME280;64187;51.010;13.792;2023-03-25T09:18:03;99322.50;;;9.96;69.95
75604;BME280;64187;51.010;13.792;2023-03-25T09:23:03;99317.72;;;9.60;70.69
75604;BME280;64187;51.010;13.792;2023-03-25T09:28:02;99334.75;;;9.61;70.34
75604;BME280;64187;51.010;13.792;2023-03-25T09:33:01;99329.47;;;9.44;71.37
75604;BME280;64187;51.010;13.792;2023-03-25T09:38:00;99323.34;;;9.54;74.45
75604;BME280;64187;51.010;13.792;2023-03-25T09:58:28;99304.44;;;10.85;70.10
75604;BME280;64187;51.010;13.792;2023-03-25T10:03:51;99309.47;;;10.40;70.48
75604;BME280;64187;51.010;13.792;2023-03-25T10:19:22;99286.84;;;11.23;70.75
75604;BME280;64187;51.010;13.792;2023-03-25T10:24:47;99265.38;;;11.52;68.38
75604;BME280;64187;51.010;13.792;2023-03-25T10:29:55;99266.00;;;12.19;66.09
75604;BME280;64187;51.010;13.792;2023-03-25T10:34:58;99259.09;;;11.88;62.42
75604;BME280;64187;51.010;13.792;2023-03-25T10:45:19;99248.91;;;12.19;63.97
75604;BME280;64187;51.010;13.792;2023-03-25T10:50:19;99241.16;;;12.46;62.63
75604;BME280;64187;51.010;13.792;2023-03-25T10:55:25;99249.09;;;12.38;55.35
75604;BME280;64187;51.010;13.792;2023-03-25T11:00:25;99218.38;;;13.11;74.62
75604;BME280;64187;51.010;13.792;2023-03-25T11:05:27;99218.75;;;15.42;64.61
75604;BME280;64187;51.010;13.792;2023-03-25T11:10:31;99216.22;;;15.59;56.91
75604;BME280;64187;51.010;13.792;2023-03-25T11:15:35;99211.56;;;14.85;51.59
75604;BME280;64187;51.010;13.792;2023-03-25T11:21:03;99209.63;;;15.33;51.63
75604;BME280;64187;51.010;13.792;2023-03-25T11:26:21;99213.28;;;15.42;51.67
75604;BME280;64187;51.010;13.792;2023-03-25T11:31:26;99210.13;;;14.55;51.41
75604;BME280;64187;51.010;13.792;2023-03-25T11:36:29;99204.06;;;14.77;50.94
75604;BME280;64187;51.010;13.792;2023-03-25T11:41:33;99238.88;;;13.81;53.29
75604;BME280;64187;51.010;13.792;2023-03-25T11:46:35;99243.50;;;10.97;61.63
75604;BME280;64187;51.010;13.792;2023-03-25T11:51:39;99229.94;;;11.13;61.82
75604;BME280;64187;51.010;13.792;2023-03-25T11:56:40;99214.59;;;11.83;60.12
75604;BME280;64187;51.010;13.792;2023-03-25T12:01:45;99189.91;;;12.40;56.22
75604;BME280;64187;51.010;13.792;2023-03-25T12:07:08;99175.28;;;12.70;54.76
75604;BME280;64187;51.010;13.792;2023-03-25T13:00:24;99182.66;;;11.65;59.27
75604;BME280;64187;51.010;13.792;2023-03-25T13:05:36;99143.16;;;11.54;61.08
75604;BME280;64187;51.010;13.792;2023-03-25T13:10:38;99142.00;;;12.54;54.45
75604;BME280;64187;51.010;13.792;2023-03-25T13:15:42;99161.22;;;12.28;55.77
75604;BME280;64187;51.010;13.792;2023-03-25T13:20:57;99143.34;;;12.22;56.40
75604;BME280;64187;51.010;13.792;2023-03-25T13:26:15;99129.19;;;12.65;56.43
75604;BME280;64187;51.010;13.792;2023-03-25T13:31:25;99117.56;;;13.12;54.69
75604;BME280;64187;51.010;13.792;2023-03-25T13:36:28;99110.56;;;12.82;52.00
75604;BME280;64187;51.010;13.792;2023-03-25T13:41:37;99099.53;;;13.22;53.21
75604;BME280;64187;51.010;13.792;2023-03-25T13:46:51;99092.94;;;13.52;51.80
75604;BME280;64187;51.010;13.792;2023-03-25T13:51:51;99099.25;;;13.66;51.51
75604;BME280;64187;51.010;13.792;2023-03-25T13:57:00;99095.31;;;13.77;49.46
75604;BME280;64187;51.010;13.792;2023-03-25T14:07:47;99087.72;;;14.12;49.99
75604;BME280;64187;51.010;13.792;2023-03-25T14:12:55;99089.72;;;14.07;46.40
75604;BME280;64187;51.010;13.792;2023-03-25T14:17:58;99096.03;;;13.83;46.28
75604;BME280;64187;51.010;13.792;2023-03-25T14:23:01;99094.13;;;13.84;45.78
75604;BME280;64187;51.010;13.792;2023-03-25T14:28:02;99085.59;;;13.28;48.29
75604;BME280;64187;51.010;13.792;2023-03-25T14:33:02;99085.47;;;13.82;46.16
75604;BME280;64187;51.010;13.792;2023-03-25T14:43:25;99085.03;;;13.31;47.19
75604;BME280;64187;51.010;13.792;2023-03-25T14:53:50;99217.19;;;8.19;73.23
75604;BME280;64187;51.010;13.792;2023-03-25T14:58:56;99189.72;;;8.22;72.63
75604;BME280;64187;51.010;13.792;2023-03-25T15:04:12;99188.53;;;8.35;72.52
75604;BME280;64187;51.010;13.792;2023-03-25T15:09:14;99181.31;;;8.40;72.77
75604;BME280;64187;51.010;13.792;2023-03-25T15:14:19;99161.72;;;8.88;68.06
75604;BME280;64187;51.010;13.792;2023-03-25T15:19:20;99132.59;;;9.42;64.36
75604;BME280;64187;51.010;13.792;2023-03-25T15:24:25;99117.38;;;10.20;65.80
75604;BME280;64187;51.010;13.792;2023-03-25T16:00:47;99147.69;;;10.88;53.89
75604;BME280;64187;51.010;13.792;2023-03-25T16:05:53;99143.63;;;10.70;56.19
75604;BME280;64187;51.010;13.792;2023-03-25T16:10:52;99157.16;;;10.60;55.41
75604;BME280;64187;51.010;13.792;2023-03-25T16:15:55;99168.28;;;10.59;56.11
75604;BME280;64187;51.010;13.792;2023-03-25T16:20:59;99176.66;;;10.42;55.89
75604;BME280;64187;51.010;13.792;2023-03-25T16:25:59;99163.41;;;10.66;54.82
75604;BME280;64187;51.010;13.792;2023-03-25T16:30:58;99168.53;;;10.47;56.36
75604;BME280;64187;51.010;13.792;2023-03-25T16:36:03;99167.72;;;10.62;55.48
75604;BME280;64187;51.010;13.792;2023-03-25T16:41:08;99160.16;;;10.69;54.84
75604;BME280;64187;51.010;13.792;2023-03-25T16:46:11;99160.13;;;10.43;55.36
75604;BME280;64187;51.010;13.792;2023-03-25T16:51:20;99162.59;;;10.55;56.30
75604;BME280;64187;51.010;13.792;2023-03-25T16:56:21;99164.47;;;10.54;56.81
75604;BME280;64187;51.010;13.792;2023-03-25T17:01:21;99175.31;;;10.54;56.49
75604;BME280;64187;51.010;13.792;2023-03-25T17:06:27;99175.78;;;10.21;57.70
75604;BME280;64187;51.010;13.792;2023-03-25T17:11:30;99180.38;;;10.20;58.24
75604;BME280;64187;51.010;13.792;2023-03-25T17:16:31;99183.88;;;10.16;58.75
75604;BME280;64187;51.010;13.792;2023-03-25T17:21:32;99180.34;;;10.00;60.57
75604;BME280;64187;51.010;13.792;2023-03-25T17:26:35;99179.81;;;10.13;59.59
75604;BME280;64187;51.010;13.792;2023-03-25T17:31:55;99182.78;;;10.06;59.04
75604;BME280;64187;51.010;13.792;2023-03-25T17:36:59;99187.91;;;9.98;60.20
75604;BME280;64187;51.010;13.792;2023-03-25T17:42:04;99189.22;;;9.90;60.22
75604;BME280;64187;51.010;13.792;2023-03-25T17:47:05;99186.53;;;9.95;60.17
75604;BME280;64187;51.010;13.792;2023-03-25T17:52:04;99190.38;;;10.14;59.90
75604;BME280;64187;51.010;13.792;2023-03-25T17:57:11;99184.72;;;10.16;60.29
75604;BME280;64187;51.010;13.792;2023-03-25T18:02:13;99188.13;;;9.91;60.36
75604;BME280;64187;51.010;13.792;2023-03-25T18:07:13;99187.63;;;9.99;59.85
75604;BME280;64187;51.010;13.792;2023-03-25T18:12:12;99182.25;;;10.09;59.43
75604;BME280;64187;51.010;13.792;2023-03-25T18:17:11;99184.63;;;9.96;60.31
75604;BME280;64187;51.010;13.792;2023-03-25T18:22:10;99198.31;;;9.68;60.76
75604;BME280;64187;51.010;13.792;2023-03-25T18:27:17;99210.03;;;9.84;60.36
75604;BME280;64187;51.010;13.792;2023-03-25T18:32:21;99215.72;;;9.93;60.92
75604;BME280;64187;51.010;13.792;2023-03-25T18:37:20;99234.44;;;10.10;59.76
75604;BME280;64187;51.010;13.792;2023-03-25T18:42:19;99228.22;;;10.09;59.76
75604;BME280;64187;51.010;13.792;2023-03-25T18:47:17;99237.06;;;9.89;60.22
75604;BME280;64187;51.010;13.792;2023-03-25T18:52:16;99240.28;;;9.81;60.77
75604;BME280;64187;51.010;13.792;2023-03-25T18:57:15;99227.97;;;10.16;60.39
75604;BME280;64187;51.010;13.792;2023-03-25T19:02:14;99225.50;;;11.73;82.25
75604;BME280;64187;51.010;13.792;2023-03-25T19:07:20;99225.56;;;13.26;65.79
75604;BME280;64187;51.010;13.792;2023-03-25T19:12:19;99224.38;;;14.09;66.53
75604;BME280;64187;51.010;13.792;2023-03-25T19:17:18;99225.00;;;14.01;53.42
75604;BME280;64187;51.010;13.792;2023-03-25T19:22:17;99217.84;;;14.67;55.76
75604;BME280;64187;51.010;13.792;2023-03-25T19:27:15;99220.91;;;11.63;56.46
75604;BME280;64187;51.010;13.792;2023-03-25T19:32:15;99206.13;;;11.05;57.89
75604;BME280;64187;51.010;13.792;2023-03-25T19:37:14;99227.25;;;10.56;60.10
75604;BME280;64187;51.010;13.792;2023-03-25T19:42:14;99222.13;;;10.81;59.51
75604;BME280;64187;51.010;13.792;2023-03-25T19:47:13;99241.06;;;10.75;59.63
75604;BME280;64187;51.010;13.792;2023-03-25T19:52:12;99235.69;;;10.86;59.12
75604;BME280;64187;51.010;13.792;2023-03-25T19:57:11;99270.31;;;10.68;58.20
75604;BME280;64187;51.010;13.792;2023-03-25T20:02:10;99277.53;;;10.32;60.11
75604;BME280;64187;51.010;13.792;2023-03-25T20:07:09;99275.50;;;10.02;63.67
75604;BME280;64187;51.010;13.792;2023-03-25T20:12:08;99240.72;;;9.63;65.91
75604;BME280;64187;51.010;13.792;2023-03-25T20:17:07;99214.81;;;9.67;67.67
75604;BME280;64187;51.010;13.792;2023-03-25T20:22:06;99214.25;;;9.60;66.95
75604;BME280;64187;51.010;13.792;2023-03-25T20:27:22;99213.75;;;9.73;67.34
75604;BME280;64187;51.010;13.792;2023-03-25T20:32:21;99206.88;;;9.45;67.24
75604;BME280;64187;51.010;13.792;2023-03-25T20:37:35;99227.75;;;9.60;66.29
75604;BME280;64187;51.010;13.792;2023-03-25T20:42:34;99236.75;;;9.81;65.58
75604;BME280;64187;51.010;13.792;2023-03-25T20:47:33;99240.06;;;9.98;66.59
75604;BME280;64187;51.010;13.792;2023-03-25T20:52:33;99212.31;;;9.50;70.25
75604;BME280;64187;51.010;13.792;2023-03-25T20:57:33;99204.38;;;9.33;68.62
75604;BME280;64187;51.010;13.792;2023-03-25T21:02:32;99193.28;;;9.24;72.46
75604;BME280;64187;51.010;13.792;2023-03-25T21:07:32;99197.53;;;9.15;70.97
75604;BME280;64187;51.010;13.792;2023-03-25T21:12:33;99199.13;;;9.16;70.53
75604;BME280;64187;51.010;13.792;2023-03-25T21:17:42;99199.56;;;8.98;71.13
75604;BME280;64187;51.010;13.792;2023-03-25T21:22:41;99201.75;;;9.01;71.19
75604;BME280;64187;51.010;13.792;2023-03-25T21:27:42;99205.66;;;9.20;69.96
75604;BME280;64187;51.010;13.792;2023-03-25T21:32:42;99214.38;;;9.33;69.53
75604;BME280;64187;51.010;13.792;2023-03-25T21:37:42;99207.66;;;8.98;70.96
75604;BME280;64187;51.010;13.792;2023-03-25T21:42:41;99200.31;;;9.31;70.55
75604;BME280;64187;51.010;13.792;2023-03-25T21:47:42;99199.84;;;9.44;71.22
75604;BME280;64187;51.010;13.792;2023-03-25T21:52:41;99200.38;;;9.46;70.47
75604;BME280;64187;51.010;13.792;2023-03-25T21:57:49;99200.91;;;9.38;69.77
75604;BME280;64187;51.010;13.792;2023-03-25T22:02:48;99200.91;;;9.43;68.25
75604;BME280;64187;51.010;13.792;2023-03-25T22:07:48;99199.06;;;9.54;66.68
75604;BME280;64187;51.010;13.792;2023-03-25T22:12:47;99204.16;;;9.40;66.45
75604;BME280;64187;51.010;13.792;2023-03-25T22:17:45;99213.31;;;9.39;65.69
75604;BME280;64187;51.010;13.792;2023-03-25T22:22:44;99201.41;;;9.35;65.10
75604;BME280;64187;51.010;13.792;2023-03-25T22:27:45;99204.16;;;9.40;64.80
75604;BME280;64187;51.010;13.792;2023-03-25T22:32:44;99202.06;;;9.52;64.41
75604;BME280;64187;51.010;13.792;2023-03-25T22:37:43;99211.25;;;9.61;63.81
75604;BME280;64187;51.010;13.792;2023-03-25T22:42:43;99210.97;;;9.53;64.18
75604;BME280;64187;51.010;13.792;2023-03-25T22:47:42;99208.06;;;9.69;62.88
75604;BME280;64187;51.010;13.792;2023-03-25T22:52:41;99191.56;;;9.66;63.70
75604;BME280;64187;51.010;13.792;2023-03-25T22:57:39;99192.84;;;9.53;62.74
75604;BME280;64187;51.010;13.792;2023-03-25T23:02:39;99202.06;;;9.52;63.36
75604;BME280;64187;51.010;13.792;2023-03-25T23:07:38;99191.81;;;9.59;63.38
75604;BME280;64187;51.010;13.792;2023-03-25T23:12:37;99193.09;;;9.46;64.08
75604;BME280;64187;51.010;13.792;2023-03-25T23:17:36;99195.34;;;9.60;64.07
75604;BME280;64187;51.010;13.792;2023-03-25T23:22:35;99187.19;;;9.49;64.68
75604;BME280;64187;51.010;13.792;2023-03-25T23:27:34;99191.06;;;9.74;64.98
75604;BME280;64187;51.010;13.792;2023-03-25T23:32:33;99190.22;;;9.68;63.77
75604;BME280;64187;51.010;13.792;2023-03-25T23:37:32;99194.00;;;9.62;65.41
75604;BME280;64187;51.010;13.792;2023-03-25T23:42:31;99189.72;;;9.72;64.78
75604;BME280;64187;51.010;13.792;2023-03-25T23:47:33;99190.44;;;9.52;66.15
75604;BME280;64187;51.010;13.792;2023-03-25T23:52:32;99197.75;;;9.61;64.07
75604;BME280;64187;51.010;13.792;2023-03-25T23:57:31;99198.97;;;9.33;64.85
